Philipsburg, Pennsylvania
Current Conditions -  °F | °C
As of 3:54 PM on Monday 22 Dec 2014 (Local Time) from KFIG Reporting Station
Scattered Clouds Scattered Clouds  
Wind Chill: 26°   Ceiling: Unl
Heat Index: 31°   Visibility: 8mi
Dew Point: 23°   Wind: 5mph
Humidity: 72%   Direction: 120°ESE
Pressure: 30.1"   Gusts: NA
Location:  40.9°N, 78.22°W
Report Text: KFIG 222054Z AUTO 12004KT 8SM SCT020 M01/M05 A3010 RMK AO2 SLP211 T10061050 56007
Loading
Personal Weather Stations






























Interactive Weather Map New forecast layout! Learn more

10-Day Weather Forecast

Advertisements
Track Severe Weather on mobile